Time;durP1;ratioP1;P1;durP2;ratioP2;P2;SDS_P1;SDS_P2;PMS_P1;PMS_P2;Temp;Humidity;BMP_temperature;BMP_pressure;BME280_temperature;BME280_humidity;BME280_pressure;Samples;Min_cycle;Max_cycle;Signal;HPM_P1;HPM_P2
2022/02/06 04:29:14;;;;;;;;;;;;;;;;;;;;;
2022/02/06 05:35:24;;;;;;;6.70;2.10;;;2.80;99.90;;;;;;6234238;23;20096;-89
2022/02/06 05:38:30;;;;;;;8.40;2.50;;;2.80;99.90;;;;;;6236960;23;20035;-89
2022/02/06 05:41:51;;;;;;;10.10;2.50;;;2.80;99.90;;;;;;6238682;23;20028;-89
2022/02/06 05:45:29;;;;;;;6.53;1.73;;;2.80;99.90;;;;;;6140435;23;20025;-90
2022/02/06 05:49:11;;;;;;;9.38;2.33;;;2.80;99.90;;;;;;6086689;23;20045;-89
2022/02/06 05:52:23;;;;;;;;;;;;;;;;;;;;;
2022/02/06 05:55:39;;;;;;;7.38;1.98;;;2.90;99.90;;;;;;6066561;23;20037;-90
2022/02/06 05:59:29;;;;;;;8.07;2.58;;;2.90;99.90;;;;;;6064086;23;20037;-90
2022/02/06 06:02:44;;;;;;;;;;;;;;;;;;;;;
2022/02/06 06:06:36;;;;;;;11.25;2.38;;;2.90;99.90;;;;;;6066378;23;20055;-89
2022/02/06 06:10:07;;;;;;;6.57;2.22;;;2.90;99.90;;;;;;6069781;23;20043;-91
2022/02/06 06:13:47;;;;;;;;;;;;;;;;;;;;;
2022/02/06 06:17:21;;;;;;;6.82;2.00;;;3.00;99.90;;;;;;6171870;23;20029;-87
2022/02/06 06:25:10;;;;;;;14.63;2.80;;;3.00;99.90;;;;;;5931095;23;20017;-84
2022/02/06 06:28:45;;;;;;;7.18;2.00;;;3.00;99.90;;;;;;6032145;23;20012;-90
2022/02/06 06:36:57;;;;;;;;;;;;;;;;;;;;;
2022/02/06 06:41:09;;;;;;;;;;;;;;;;;;;;;
2022/02/06 07:00:38;;;;;;;5.10;2.10;;;3.10;99.90;;;;;;6026253;23;20027;-90
2022/02/06 07:08:01;;;;;;;8.37;2.43;;;3.20;99.90;;;;;;5928437;23;20025;-90
2022/02/06 07:10:54;;;;;;;7.45;2.45;;;3.20;99.90;;;;;;6034476;23;20031;-89
2022/02/06 07:18:06;;;;;;;;;;;;;;;;;;;;;
2022/02/06 07:30:21;;;;;;;4.22;1.80;;;3.40;99.90;;;;;;6076172;23;20153;-89
2022/02/06 07:33:44;;;;;;;11.52;2.30;;;3.50;99.90;;;;;;6126765;23;20041;-91
2022/02/06 07:37:06;;;;;;;5.47;2.03;;;3.50;99.90;;;;;;6107880;23;20033;-89
2022/02/06 07:44:17;;;;;;;8.63;2.30;;;3.60;99.90;;;;;;5956732;24;20095;-90
2022/02/06 07:47:23;;;;;;;5.68;1.80;;;3.60;99.90;;;;;;5980064;24;20025;-88
2022/02/06 07:51:07;;;;;;;;;;;;;;;;;;;;;
2022/02/06 07:54:29;;;;;;;5.03;1.70;;;3.70;99.90;;;;;;5886432;24;20080;-89
2022/02/06 07:57:52;;;;;;;8.00;2.00;;;3.70;99.90;;;;;;5925132;24;20043;-88
2022/02/06 08:01:05;;;;;;;5.80;2.20;;;3.80;99.90;;;;;;5981867;24;20053;-89
2022/02/06 08:04:32;;;;;;;;;;;;;;;;;;;;;
2022/02/06 08:08:20;;;;;;;9.93;2.13;;;4.00;99.90;;;;;;5938865;23;20038;-92
2022/02/06 08:15:43;;;;;;;;;;;4.10;99.90;;;;;;6088646;23;20093;-89
2022/02/06 08:18:51;;;;;;;6.60;1.70;;;4.20;99.90;;;;;;6122258;23;20316;-89
2022/02/06 08:22:15;;;;;;;7.95;2.20;;;4.20;99.90;;;;;;6116450;23;20108;-87
2022/02/06 08:30:07;;;;;;;4.93;1.73;;;4.30;99.90;;;;;;6113343;23;20102;-91
2022/02/06 08:36:55;;;;;;;9.40;2.08;;;4.30;99.90;;;;;;5898999;24;20039;-90
2022/02/06 08:40:52;;;;;;;11.60;2.15;;;4.30;99.90;;;;;;5791569;24;20059;-90
2022/02/06 09:17:26;;;;;;;9.13;2.20;;;5.20;99.90;;;;;;5890954;24;20017;-89
2022/02/06 09:29:55;;;;;;;8.93;2.10;;;4.90;99.90;;;;;;5847304;24;20026;-90
2022/02/06 09:37:00;;;;;;;9.95;2.20;;;5.00;99.90;;;;;;5755771;24;20452;-89
2022/02/06 09:40:44;;;;;;;7.57;2.05;;;5.00;99.90;;;;;;5883189;24;20029;-91
2022/02/06 09:44:35;;;;;;;6.82;1.83;;;5.00;99.90;;;;;;5847341;24;20053;-90
2022/02/06 09:47:53;;;;;;;;;;;;;;;;;;;;;
2022/02/06 09:51:11;;;;;;;12.98;2.17;;;5.20;99.90;;;;;;5779963;24;20024;-88
2022/02/06 10:02:51;;;;;;;;;;;;;;;;;;;;;
2022/02/06 10:10:19;;;;;;;9.27;2.13;;;5.80;99.90;;;;;;5006346;28;20053;-89
2022/02/06 10:13:37;;;;;;;7.30;2.97;;;5.90;99.90;;;;;;5020568;28;20052;-88
2022/02/06 10:17:24;;;;;;;9.68;1.83;;;5.80;99.90;;;;;;5075406;28;20070;-90
2022/02/06 10:25:05;;;;;;;9.75;2.55;;;6.10;99.90;;;;;;5076735;28;20049;-91
2022/02/06 10:32:36;;;;;;;5.80;1.75;;;5.70;99.90;;;;;;5007304;28;20093;-90
2022/02/06 10:36:16;;;;;;;;;;;;;;;;;;;;;
2022/02/06 10:40:39;;;;;;;;;;;;;;;;;;;;;
2022/02/06 10:43:53;;;;;;;6.95;1.67;;;6.20;99.90;;;;;;4968089;28;20169;-91
2022/02/06 10:47:05;;;;;;;6.88;2.20;;;6.00;99.90;;;;;;5006879;28;20061;-87
2022/02/06 10:50:27;;;;;;;8.95;1.95;;;5.80;99.90;;;;;;5002047;28;20427;-88
2022/02/06 10:53:28;;;;;;;7.35;1.85;;;6.00;99.90;;;;;;4996580;28;20499;-89
2022/02/06 10:56:32;;;;;;;;;;;;;;;;;;;;;
2022/02/06 10:59:42;;;;;;;4.53;1.60;;;6.60;99.90;;;;;;5008770;28;20524;-88
2022/02/06 11:03:25;;;;;;;;;;;;;;;;;;;;;
2022/02/06 11:11:17;;;;;;;10.27;2.17;;;6.40;99.90;;;;;;4902861;28;20466;-90
2022/02/06 11:14:26;;;;;;;;;;;6.50;99.90;;;;;;5015711;28;20202;-90
2022/02/06 11:17:44;;;;;;;;;;;;;;;;;;;;;
2022/02/06 11:21:48;;;;;;;;;;;;;;;;;;;;;
2022/02/06 11:25:21;;;;;;;;;;;;;;;;;;;;;
2022/02/06 11:28:21;;;;;;;6.00;1.85;;;6.40;99.90;;;;;;5059154;28;20045;-90
2022/02/06 11:31:31;;;;;;;10.95;2.15;;;6.40;99.90;;;;;;5042343;28;20056;-89
2022/02/06 11:34:47;;;;;;;;;;;6.20;99.90;;;;;;5045345;28;20052;-89
2022/02/06 11:45:14;;;;;;;6.80;1.75;;;6.10;99.90;;;;;;5042652;28;20045;-91
2022/02/06 11:48:38;;;;;;;7.68;1.58;;;6.10;99.90;;;;;;4992629;28;20060;-90
2022/02/06 11:51:53;;;;;;;5.20;1.70;;;6.20;99.90;;;;;;4994762;28;20058;-91
2022/02/06 11:55:02;;;;;;;7.80;2.03;;;6.20;99.90;;;;;;4964586;28;20062;-92
2022/02/06 11:58:38;;;;;;;3.63;1.50;;;6.20;99.90;;;;;;4978518;28;20050;-87
2022/02/06 12:02:24;;;;;;;8.38;2.17;;;6.10;99.90;;;;;;5005182;28;20061;-88
2022/02/06 12:05:53;;;;;;;6.50;1.83;;;6.00;99.90;;;;;;5006142;28;20089;-91
2022/02/06 12:09:05;;;;;;;3.83;1.60;;;6.00;99.90;;;;;;4965877;28;20062;-91
2022/02/06 12:12:35;;;;;;;6.50;1.67;;;6.00;99.90;;;;;;4990344;28;20144;-88
2022/02/06 12:15:57;;;;;;;10.63;1.83;;;5.90;99.90;;;;;;5007561;28;20035;-89
2022/02/06 12:23:00;;;;;;;4.15;1.30;;;5.90;99.90;;;;;;5049238;28;20053;-88
2022/02/06 12:26:29;;;;;;;5.45;1.90;;;5.80;99.90;;;;;;5049619;28;20190;-89
2022/02/06 12:29:49;;;;;;;6.63;1.77;;;5.70;99.90;;;;;;4961152;28;20047;-90
2022/02/06 12:33:19;;;;;;;3.95;1.42;;;5.80;99.90;;;;;;5036239;28;20400;-88
2022/02/06 12:37:15;;;;;;;5.32;1.90;;;5.90;99.90;;;;;;5040563;28;20068;-89
2022/02/06 12:40:14;;;;;;;5.28;1.45;;;5.90;99.90;;;;;;4977067;28;20087;-89
2022/02/06 12:51:36;;;;;;;6.03;1.67;;;6.00;99.90;;;;;;5001396;28;20054;-88
2022/02/06 12:54:31;;;;;;;4.45;1.92;;;6.10;99.90;;;;;;5012863;28;20050;-90
2022/02/06 12:57:29;;;;;;;1.92;1.60;;;6.00;99.90;;;;;;5023119;28;20050;-89
2022/02/06 13:00:40;;;;;;;6.75;1.63;;;6.00;99.90;;;;;;5011073;28;20033;-88
2022/02/06 13:07:11;;;;;;;2.25;1.30;;;5.80;99.90;;;;;;4940650;29;20134;-88
2022/02/06 13:10:38;;;;;;;4.35;1.65;;;5.80;99.90;;;;;;4927731;29;20503;-90
2022/02/06 13:14:09;;;;;;;1.88;1.35;;;5.70;99.90;;;;;;4931536;29;20048;-89
2022/02/06 13:17:48;;;;;;;5.18;1.48;;;5.60;99.90;;;;;;4922931;29;20048;-89
2022/02/06 13:28:48;;;;;;;4.00;1.48;;;5.40;99.90;;;;;;4978670;28;20439;-88
2022/02/06 13:31:55;;;;;;;3.05;1.30;;;5.30;99.90;;;;;;4972676;28;20716;-89
2022/02/06 13:39:42;;;;;;;1.95;1.33;;;5.20;99.90;;;;;;4955544;28;20135;-90
2022/02/06 13:42:39;;;;;;;4.95;1.75;;;5.20;99.90;;;;;;4973501;28;20203;-90
2022/02/06 13:45:38;;;;;;;3.60;1.38;;;5.20;99.90;;;;;;5049622;28;20048;-89
2022/02/06 13:48:49;;;;;;;2.58;1.27;;;5.30;99.90;;;;;;5054927;28;20162;-91
2022/02/06 13:52:04;;;;;;;2.25;1.30;;;5.20;99.90;;;;;;5032136;28;20161;-90
2022/02/06 13:56:28;;;;;;;2.95;1.55;;;5.20;99.90;;;;;;5012577;28;20102;-91
2022/02/06 14:00:01;;;;;;;4.50;1.65;;;5.20;99.90;;;;;;4974000;28;20437;-92
2022/02/06 14:03:11;;;;;;;2.47;0.80;;;5.10;99.90;;;;;;5008051;28;20427;-91
2022/02/06 14:07:16;;;;;;;;;;;;;;;;;;;;;
2022/02/06 14:10:31;;;;;;;1.05;0.93;;;4.90;99.90;;;;;;4981728;28;20054;-88
2022/02/06 14:14:02;;;;;;;2.30;1.40;;;4.90;99.90;;;;;;4984837;28;20043;-91
2022/02/06 14:17:48;;;;;;;;;;;;;;;;;;;;;
2022/02/06 14:28:55;;;;;;;1.17;0.93;;;4.70;99.90;;;;;;4966440;28;20552;-90
2022/02/06 14:32:47;;;;;;;6.53;1.75;;;4.70;99.90;;;;;;4957372;28;20058;-92
2022/02/06 14:36:16;;;;;;;;;;;;;;;;;;;;;
2022/02/06 14:43:51;;;;;;;1.85;1.13;;;4.50;99.90;;;;;;4974382;28;20043;-88
2022/02/06 14:46:48;;;;;;;1.52;1.13;;;4.60;99.90;;;;;;4983495;28;20068;-85
2022/02/06 14:49:38;;;;;;;2.80;1.17;;;4.50;99.90;;;;;;4975748;28;20055;-89
2022/02/06 14:52:40;;;;;;;2.35;1.20;;;4.40;99.90;;;;;;4976195;28;20055;-84
2022/02/06 14:55:31;;;;;;;1.52;0.80;;;4.40;99.90;;;;;;4961046;28;20065;-86
2022/02/06 14:58:28;;;;;;;3.90;1.15;;;4.30;99.90;;;;;;4975252;28;20455;-86
2022/02/06 15:01:29;;;;;;;3.78;1.23;;;4.30;99.90;;;;;;4958889;28;20047;-86
2022/02/06 15:04:25;;;;;;;3.90;1.15;;;4.20;99.90;;;;;;4969637;28;20154;-89
2022/02/06 15:07:16;;;;;;;4.93;1.20;;;4.20;99.90;;;;;;5025001;28;20121;-86
2022/02/06 15:10:09;;;;;;;1.30;1.20;;;4.20;99.90;;;;;;5039161;28;20132;-88
2022/02/06 15:13:13;;;;;;;3.83;1.13;;;4.10;99.90;;;;;;5060044;28;20049;-89
2022/02/06 15:16:25;;;;;;;;;;;;;;;;;;;;;
2022/02/06 15:19:14;;;;;;;2.80;1.60;;;4.10;99.90;;;;;;5050691;28;20067;-89
2022/02/06 15:22:37;;;;;;;3.88;1.98;;;4.10;99.90;;;;;;5025272;28;20052;-88
2022/02/06 15:25:27;;;;;;;4.85;2.25;;;4.10;99.90;;;;;;5043691;28;20156;-88
2022/02/06 15:28:34;;;;;;;;;;;;;;;;;;;;;
2022/02/06 15:31:34;;;;;;;3.97;1.42;;;4.10;99.90;;;;;;5077898;28;20029;-87
2022/02/06 15:34:42;;;;;;;3.03;1.48;;;4.10;99.90;;;;;;5064046;28;20037;-86
2022/02/06 15:37:31;;;;;;;1.67;1.13;;;4.00;99.90;;;;;;5058260;28;20040;-89
2022/02/06 15:40:22;;;;;;;2.75;1.30;;;4.00;99.90;;;;;;5056175;28;20049;-89
2022/02/06 15:43:15;;;;;;;1.17;1.08;;;4.00;99.90;;;;;;5051124;28;20055;-88
2022/02/06 15:46:08;;;;;;;1.27;0.93;;;4.00;99.90;;;;;;5066386;28;20051;-86
2022/02/06 15:49:09;;;;;;;5.35;1.30;;;4.00;99.90;;;;;;5048880;28;20049;-87
2022/02/06 15:51:56;;;;;;;2.00;1.25;;;4.00;99.90;;;;;;5059348;28;20186;-87
2022/02/06 15:54:48;;;;;;;1.33;1.23;;;4.00;99.90;;;;;;5043930;28;20044;-88
2022/02/06 15:57:35;;;;;;;2.65;1.40;;;4.00;99.90;;;;;;5060311;28;20485;-88
2022/02/06 16:00:30;;;;;;;1.63;1.30;;;3.90;99.90;;;;;;5057742;28;20112;-89
2022/02/06 16:03:20;;;;;;;3.72;1.50;;;3.90;99.90;;;;;;5039998;28;20041;-87
2022/02/06 16:06:09;;;;;;;1.40;1.30;;;3.90;99.90;;;;;;5053559;28;20041;-89
2022/02/06 16:09:03;;;;;;;8.02;3.25;;;3.90;99.90;;;;;;5028121;28;20064;-88
2022/02/06 16:11:56;;;;;;;3.30;1.20;;;3.90;99.90;;;;;;5037239;28;20049;-87
2022/02/06 16:15:11;;;;;;;2.35;1.23;;;3.90;99.90;;;;;;5054209;28;20040;-90
2022/02/06 16:18:07;;;;;;;0.90;0.90;;;3.90;99.90;;;;;;5040260;28;20052;-85
2022/02/06 16:20:55;;;;;;;2.97;1.10;;;3.90;99.90;;;;;;5035576;28;20048;-88
2022/02/06 16:23:42;;;;;;;1.40;1.30;;;3.90;99.90;;;;;;5040267;28;20106;-85
2022/02/06 16:26:31;;;;;;;0.90;0.90;;;3.90;99.90;;;;;;5055171;28;20053;-86
2022/02/06 16:29:22;;;;;;;1.00;1.00;;;3.90;99.90;;;;;;5039618;28;20091;-86
2022/02/06 16:32:18;;;;;;;2.65;1.05;;;4.00;99.90;;;;;;5038457;28;20082;-87
2022/02/06 16:35:08;;;;;;;2.15;1.40;;;4.00;99.90;;;;;;5030691;28;20128;-87
2022/02/06 16:38:05;;;;;;;1.15;0.98;;;4.00;99.90;;;;;;5056372;28;20110;-87
2022/02/06 16:40:56;;;;;;;1.60;1.40;;;4.00;99.90;;;;;;5041138;28;20060;-87
2022/02/06 16:43:48;;;;;;;1.15;1.05;;;4.00;99.90;;;;;;5050998;28;20044;-88
2022/02/06 16:46:37;;;;;;;3.20;1.40;;;4.00;99.90;;;;;;5040466;28;20431;-87
2022/02/06 16:49:39;;;;;;;1.23;1.13;;;4.00;99.90;;;;;;5043487;28;20155;-90
2022/02/06 16:52:27;;;;;;;1.10;1.00;;;4.10;99.90;;;;;;5025895;28;20080;-87
2022/02/06 16:55:17;;;;;;;1.95;1.02;;;4.10;99.90;;;;;;5039836;28;20186;-87
2022/02/06 16:58:11;;;;;;;1.40;1.00;;;4.00;99.90;;;;;;5036932;28;20124;-85
2022/02/06 17:01:05;;;;;;;2.08;1.58;;;4.10;99.90;;;;;;5032713;28;20466;-89
2022/02/06 17:04:01;;;;;;;2.85;1.33;;;4.10;99.90;;;;;;5041112;28;20072;-84
2022/02/06 17:06:56;;;;;;;1.42;1.30;;;4.10;99.90;;;;;;5041975;28;20053;-86
2022/02/06 17:09:49;;;;;;;2.28;1.25;;;4.10;99.90;;;;;;5036116;28;20104;-88
2022/02/06 17:12:47;;;;;;;1.90;1.20;;;4.10;99.90;;;;;;5032681;28;20037;-87
2022/02/06 17:15:42;;;;;;;3.90;1.15;;;4.20;99.90;;;;;;5041059;28;20052;-84
2022/02/06 17:18:38;;;;;;;2.15;1.20;;;4.20;99.90;;;;;;5052840;28;20045;-89
2022/02/06 17:21:26;;;;;;;2.88;1.55;;;4.20;99.90;;;;;;5063918;28;20421;-87
2022/02/06 17:24:27;;;;;;;2.40;1.50;;;4.20;99.90;;;;;;5043519;28;20033;-88
2022/02/06 17:27:48;;;;;;;12.82;1.98;;;4.20;99.90;;;;;;5071503;28;20028;-87
2022/02/06 17:31:02;;;;;;;1.27;1.20;;;4.20;99.90;;;;;;5083808;28;20024;-88
2022/02/06 17:33:50;;;;;;;3.22;1.40;;;4.20;99.90;;;;;;5095656;28;20040;-88
2022/02/06 17:36:39;;;;;;;2.78;1.88;;;4.20;99.90;;;;;;5072978;28;20075;-87
2022/02/06 17:39:27;;;;;;;1.40;1.30;;;4.30;99.90;;;;;;5071019;28;20454;-88
2022/02/06 17:42:18;;;;;;;1.30;1.20;;;4.30;99.90;;;;;;5049468;28;20049;-86
2022/02/06 17:45:11;;;;;;;1.25;1.17;;;4.30;99.90;;;;;;5048413;28;20102;-89
2022/02/06 17:47:59;;;;;;;1.92;1.30;;;4.20;99.90;;;;;;5057663;28;20041;-86
2022/02/06 17:50:53;;;;;;;1.38;1.00;;;4.20;99.90;;;;;;5042003;28;20318;-90
2022/02/06 17:53:42;;;;;;;5.63;1.85;;;4.20;99.90;;;;;;5039363;28;20547;-87
2022/02/06 17:56:35;;;;;;;2.08;1.17;;;4.20;99.90;;;;;;5041295;28;20140;-90
2022/02/06 17:59:25;;;;;;;6.07;2.78;;;4.20;99.90;;;;;;5032524;28;20068;-87
2022/02/06 18:02:13;;;;;;;5.70;2.22;;;4.30;99.90;;;;;;5045372;28;20442;-88
2022/02/06 18:05:25;;;;;;;3.03;1.75;;;4.30;99.90;;;;;;5023725;28;20473;-89
2022/02/06 18:08:12;;;;;;;2.97;1.90;;;4.30;99.90;;;;;;5026909;28;20262;-89
2022/02/06 18:11:12;;;;;;;2.78;1.65;;;4.30;99.90;;;;;;5038126;28;20064;-89
2022/02/06 18:14:00;;;;;;;1.42;1.27;;;4.20;99.90;;;;;;5034933;28;20381;-87
2022/02/06 18:16:47;;;;;;;2.78;1.70;;;4.30;99.90;;;;;;5035204;28;20147;-87
2022/02/06 18:19:40;;;;;;;2.45;1.45;;;4.30;99.90;;;;;;5046265;28;20503;-89
2022/02/06 18:22:30;;;;;;;1.70;1.30;;;4.40;99.90;;;;;;5043234;28;20032;-86
2022/02/06 18:25:39;;;;;;;1.17;1.08;;;4.40;99.90;;;;;;5037251;28;20056;-88
2022/02/06 18:28:34;;;;;;;1.20;1.10;;;4.50;99.90;;;;;;5024608;28;20052;-88
2022/02/06 18:31:41;;;;;;;2.17;1.17;;;4.50;99.90;;;;;;5045476;28;20142;-90
2022/02/06 18:34:47;;;;;;;2.00;1.33;;;4.40;99.90;;;;;;5044229;28;20044;-90
2022/02/06 18:37:48;;;;;;;1.48;1.02;;;4.40;99.90;;;;;;5031921;28;20441;-88
2022/02/06 18:40:44;;;;;;;2.42;1.38;;;4.40;99.90;;;;;;5041270;28;20687;-88
2022/02/06 18:43:38;;;;;;;2.33;1.40;;;4.30;99.90;;;;;;5042352;28;20045;-89
2022/02/06 18:46:32;;;;;;;2.13;1.30;;;4.30;99.90;;;;;;5042359;28;20044;-88
2022/02/06 18:49:27;;;;;;;4.40;1.88;;;4.40;99.90;;;;;;5038782;28;20044;-90
2022/02/06 18:52:27;;;;;;;1.20;1.10;;;4.40;99.90;;;;;;5033150;28;20053;-90
2022/02/06 18:55:28;;;;;;;2.47;1.40;;;4.40;99.90;;;;;;5042209;28;20044;-88
2022/02/06 18:58:27;;;;;;;1.70;1.48;;;4.40;99.90;;;;;;5035698;28;20042;-86
2022/02/06 19:01:23;;;;;;;1.67;1.48;;;4.40;99.90;;;;;;5035726;28;20108;-89
2022/02/06 19:04:16;;;;;;;1.38;1.10;;;4.50;99.90;;;;;;5036655;28;20046;-91
2022/02/06 19:07:37;;;;;;;2.15;1.25;;;4.50;99.90;;;;;;5028517;28;20469;-88
2022/02/06 19:10:32;;;;;;;1.60;1.38;;;4.50;99.90;;;;;;5042486;28;20457;-87
2022/02/06 19:13:50;;;;;;;;;;;;;;;;;;;;;
2022/02/06 19:17:00;;;;;;;2.03;1.45;;;4.50;99.90;;;;;;5055601;28;20049;-87
2022/02/06 19:19:51;;;;;;;1.33;1.23;;;4.50;99.90;;;;;;5041547;28;20048;-88
2022/02/06 19:22:50;;;;;;;2.80;1.60;;;4.50;99.90;;;;;;5043121;28;20037;-85
2022/02/06 19:26:03;;;;;;;1.95;1.60;;;4.40;99.90;;;;;;5039976;28;20161;-90
2022/02/06 19:29:01;;;;;;;1.48;1.38;;;4.40;99.90;;;;;;5043276;28;20604;-87
2022/02/06 19:31:56;;;;;;;1.02;1.02;;;4.50;99.90;;;;;;5040742;28;20048;-89
2022/02/06 19:35:02;;;;;;;1.75;1.30;;;4.60;99.90;;;;;;5041776;28;20427;-90
2022/02/06 19:37:49;;;;;;;1.80;1.70;;;4.50;99.90;;;;;;5041751;28;20041;-87
2022/02/06 19:40:46;;;;;;;1.45;1.20;;;4.50;99.90;;;;;;5033395;28;20051;-87
2022/02/06 19:43:42;;;;;;;2.42;1.10;;;4.60;99.90;;;;;;5035404;28;20058;-90
2022/02/06 19:46:43;;;;;;;1.17;1.05;;;4.60;99.90;;;;;;5037141;28;20101;-89
2022/02/06 19:49:48;;;;;;;;;;;;;;;;;;;;;
2022/02/06 19:52:39;;;;;;;3.40;1.35;;;4.60;99.90;;;;;;5065597;28;20121;-87
2022/02/06 19:55:37;;;;;;;;;;;;;;;;;;;;;
2022/02/06 19:59:10;;;;;;;1.55;1.00;;;4.70;99.90;;;;;;5028387;28;20053;-88
2022/02/06 20:02:30;;;;;;;2.13;1.58;;;4.70;99.90;;;;;;5035848;28;20113;-89
2022/02/06 20:05:43;;;;;;;1.42;1.27;;;4.70;99.90;;;;;;4979036;28;20172;-87
2022/02/06 20:08:33;;;;;;;1.73;1.23;;;4.70;99.90;;;;;;5006514;28;20042;-87
2022/02/06 20:11:26;;;;;;;3.28;1.30;;;4.70;99.90;;;;;;4981325;28;20073;-89
2022/02/06 20:14:44;;;;;;;1.63;1.10;;;4.80;99.90;;;;;;4974260;28;20055;-90
2022/02/06 20:17:35;;;;;;;1.20;1.10;;;4.80;99.90;;;;;;4960882;28;20043;-86
2022/02/06 20:20:37;;;;;;;1.23;1.13;;;4.80;99.90;;;;;;4998745;28;20051;-88
2022/02/06 20:23:31;;;;;;;2.35;1.10;;;4.90;99.90;;;;;;5006117;28;20053;-87
2022/02/06 20:26:22;;;;;;;1.17;1.02;;;4.90;99.90;;;;;;5006964;28;20042;-88
2022/02/06 20:29:32;;;;;;;1.50;1.40;;;4.90;99.90;;;;;;5054996;28;20045;-87
2022/02/06 20:32:19;;;;;;;1.73;1.30;;;4.80;99.90;;;;;;5024994;28;20263;-89
2022/02/06 20:35:13;;;;;;;1.67;1.15;;;4.90;99.90;;;;;;5041338;28;20053;-89
2022/02/06 20:38:01;;;;;;;1.42;1.05;;;4.90;99.90;;;;;;5053072;28;20113;-86
2022/02/06 20:40:50;;;;;;;1.75;1.33;;;4.80;99.90;;;;;;5041198;28;20037;-86
2022/02/06 20:43:57;;;;;;;1.50;1.10;;;4.80;99.90;;;;;;5024549;28;20045;-89
2022/02/06 20:47:10;;;;;;;1.00;0.90;;;4.80;99.90;;;;;;5048068;28;20405;-90
2022/02/06 20:50:18;;;;;;;1.33;1.10;;;4.70;99.90;;;;;;5032111;28;20365;-88
2022/02/06 20:53:23;;;;;;;2.67;1.23;;;4.70;99.90;;;;;;5058019;28;20041;-90
2022/02/06 20:56:15;;;;;;;1.30;0.90;;;4.60;99.90;;;;;;5037006;28;20402;-83
2022/02/06 20:59:03;;;;;;;4.63;1.10;;;4.60;99.90;;;;;;5039052;28;20048;-86
2022/02/06 21:01:51;;;;;;;1.70;1.27;;;4.60;99.90;;;;;;5044437;28;20055;-86
2022/02/06 21:04:55;;;;;;;4.32;1.73;;;4.60;99.90;;;;;;5057596;28;20048;-88
2022/02/06 21:07:45;;;;;;;1.23;1.02;;;4.60;99.90;;;;;;5033479;28;20059;-86
2022/02/06 21:10:33;;;;;;;1.17;1.08;;;4.60;99.90;;;;;;5044607;28;20450;-88
2022/02/06 21:13:28;;;;;;;1.27;0.95;;;4.60;99.90;;;;;;5038530;28;20472;-89
2022/02/06 21:16:15;;;;;;;0.90;0.90;;;4.60;99.90;;;;;;5052892;28;20041;-87
2022/02/06 21:19:05;;;;;;;4.20;1.15;;;4.70;99.90;;;;;;5040545;28;20199;-88
2022/02/06 21:21:54;;;;;;;0.95;0.95;;;4.70;99.90;;;;;;5039163;28;20049;-85
2022/02/06 21:24:42;;;;;;;1.15;1.05;;;4.80;99.90;;;;;;5042411;28;20176;-89
2022/02/06 21:27:34;;;;;;;0.80;0.80;;;4.80;99.90;;;;;;5046724;28;20045;-89
2022/02/06 21:30:24;;;;;;;1.00;0.90;;;4.80;99.90;;;;;;5046947;28;20049;-86
2022/02/06 21:33:15;;;;;;;1.17;1.00;;;4.80;99.90;;;;;;5052578;28;20049;-87
2022/02/06 21:36:06;;;;;;;1.20;1.00;;;4.80;99.90;;;;;;5059235;28;20194;-88
2022/02/06 21:38:56;;;;;;;1.02;0.90;;;4.80;99.90;;;;;;5038217;28;20041;-87
2022/02/06 21:41:47;;;;;;;0.60;0.60;;;4.80;99.90;;;;;;5020338;28;20045;-88
2022/02/06 21:44:34;;;;;;;0.70;0.70;;;4.90;99.90;;;;;;5050140;28;20135;-88
2022/02/06 21:47:25;;;;;;;3.28;0.60;;;4.90;99.90;;;;;;5052626;28;20049;-90
2022/02/06 21:50:17;;;;;;;2.35;1.00;;;5.00;99.90;;;;;;5033647;28;20049;-90
2022/02/06 21:53:05;;;;;;;2.08;1.35;;;4.90;99.90;;;;;;5041410;28;20063;-86
2022/02/06 21:55:52;;;;;;;0.70;0.70;;;4.90;99.90;;;;;;5032301;28;20120;-87
2022/02/06 21:58:45;;;;;;;1.15;0.93;;;4.80;99.90;;;;;;5031908;28;20135;-87
2022/02/06 22:01:35;;;;;;;0.60;0.60;;;4.80;99.90;;;;;;5040070;28;20470;-91
2022/02/06 22:04:23;;;;;;;0.70;0.70;;;4.80;99.90;;;;;;5027514;28;20060;-87
2022/02/06 22:07:28;;;;;;;0.73;0.60;;;4.80;99.90;;;;;;5040857;28;20045;-88
2022/02/06 22:20:33;;;;;;;0.75;0.70;;;4.70;99.90;;;;;;5054026;28;20126;-87
2022/02/06 22:20:39;;;;;;;0.90;0.60;;;4.70;99.90;;;;;;5039026;28;20186;-87
2022/02/06 22:29:27;;;;;;;0.70;0.65;;;4.50;99.90;;;;;;5057743;28;20049;-89
2022/02/06 22:32:17;;;;;;;1.10;0.60;;;4.50;99.90;;;;;;5052652;28;20051;-86
2022/02/06 22:35:05;;;;;;;0.60;0.60;;;4.50;99.90;;;;;;5051754;28;20042;-87
2022/02/06 22:38:02;;;;;;;0.60;0.60;;;4.50;99.90;;;;;;5061675;28;20415;-88
2022/02/06 22:41:00;;;;;;;0.70;0.70;;;4.50;99.90;;;;;;5041882;28;20055;-87
2022/02/06 22:43:53;;;;;;;0.57;0.57;;;4.50;99.90;;;;;;5023086;28;20056;-87
2022/02/06 22:46:44;;;;;;;0.60;0.60;;;4.50;99.90;;;;;;5041337;28;20339;-88
2022/02/06 22:49:32;;;;;;;0.63;0.63;;;4.50;99.90;;;;;;5042822;28;20040;-87
2022/02/06 22:52:21;;;;;;;0.95;0.60;;;4.40;99.90;;;;;;5047654;28;20136;-87
2022/02/06 22:55:08;;;;;;;0.68;0.68;;;4.40;99.90;;;;;;5043896;28;20033;-88
2022/02/06 22:57:56;;;;;;;0.60;0.60;;;4.30;99.90;;;;;;5045521;28;20045;-86
2022/02/06 23:00:48;;;;;;;0.77;0.50;;;4.00;99.90;;;;;;5040627;28;20446;-86
2022/02/06 23:03:53;;;;;;;0.90;0.55;;;3.80;99.90;;;;;;5036716;28;20080;-86
2022/02/06 23:06:45;;;;;;;0.45;0.45;;;3.70;99.90;;;;;;5026050;28;20049;-87
2022/02/06 23:09:41;;;;;;;0.60;0.60;;;3.60;99.90;;;;;;5040247;28;20052;-84
2022/02/06 23:12:28;;;;;;;2.72;0.70;;;3.40;99.90;;;;;;5020273;28;20048;-85
2022/02/06 23:15:18;;;;;;;1.63;0.60;;;3.20;99.90;;;;;;5076103;28;20051;-84
2022/02/06 23:18:10;;;;;;;1.08;0.50;;;2.90;99.90;;;;;;5041387;28;20106;-86
2022/02/06 23:21:00;;;;;;;0.88;0.63;;;2.50;99.90;;;;;;5039831;28;20049;-87
2022/02/06 23:23:48;;;;;;;0.60;0.50;;;2.30;99.90;;;;;;5041448;28;20114;-86
2022/02/06 23:26:35;;;;;;;2.83;0.60;;;2.20;99.90;;;;;;5021458;28;20111;-85
2022/02/06 23:29:34;;;;;;;0.52;0.52;;;2.20;99.90;;;;;;5058840;28;20449;-87
2022/02/06 23:32:22;;;;;;;3.05;0.68;;;2.20;99.90;;;;;;5051511;28;20041;-86
2022/02/06 23:35:12;;;;;;;0.88;0.70;;;2.40;99.90;;;;;;5039918;28;20143;-86
2022/02/06 23:38:01;;;;;;;0.50;0.50;;;2.40;99.90;;;;;;5028496;28;20124;-86
2022/02/06 23:40:50;;;;;;;0.63;0.60;;;2.40;99.90;;;;;;5059137;28;20060;-85
2022/02/06 23:43:37;;;;;;;1.20;0.63;;;2.50;99.90;;;;;;5029432;28;20044;-86
2022/02/06 23:46:31;;;;;;;0.57;0.55;;;2.50;99.90;;;;;;5040269;28;20049;-85
2022/02/06 23:49:21;;;;;;;;;;;2.40;99.90;;;;;;5038236;28;20369;-86
2022/02/06 23:55:28;;;;;;;;;;;2.10;99.90;;;;;;5053679;28;20100;-85
